New Harbor, ME

43° 52' 34"N, 69° 29' 40"W, Elevation 65 ft.
Eastern Time

Hourly observations for the last 72 hours

Date Time Temperature (°F) Humi-
dity

(%)
Wind
(mph)
Pressure Rain (in) Sun
(W/m2)
ET
(in)
Air Dew 6 Hour 1 Hr 3 Hr 6 Hr Day
Alt
(in)
Sea
Level

(mb)
Max Min
17 00:00 22.1 4.5 46 NW 10 G 21 30.07 1018.3 0.00 0 0.036
16 23:00 28.0 12.2 51 NW 8 G 16 30.02 1016.7 0.00 0 0.034
16 22:00 31.1 17.6 57 NNW 9 G 20 29.97 1015.0 0.00 0 0.033
16 21:00 33.8 25.7 72 W 4 G 11 29.92 1013.2 0.00 0 0.032
16 20:00 34.6 25.1 68 WSW 5 G 14 29.89 1012.2 0.00 0 0.031
16 19:00 34.5 24.3 35.7 32.9 66 WSW 4 G 10 29.87 1011.5 0.00 0 0.030
16 18:00 33.0 24.3 70 WSW 3 G 11 29.84 1010.6 0.00 0 0.029
16 17:00 33.4 24.3 69 WSW 4 G 11 29.82 1010.0 0.00 0 0.028
16 16:00 34.8 23.9 64 SW 6 G 11 29.81 1009.5 0.00 16 0.026
16 15:00 35.7 24.7 64 SW 4 G 13 29.81 1009.4 0.00 95 0.023
16 14:00 35.4 24.1 63 SW 8 G 14 29.79 1009.0 0.00 113 0.020
16 13:00 34.6 24.0 36.4 32.5 65 WSW 10 G 18 29.79 1008.8 0.00 316 0.016
16 12:00 35.7 26.2 68 SW 9 G 19 29.81 1009.3 0.00 388 0.012
16 11:00 35.7 27.9 73 SSW 7 G 18 29.84 1010.7 0.00 72 0.010
16 10:00 34.2 26.5 73 SSW 7 G 18 29.89 1012.1 0.00 70 0.008
16 09:00 33.5 25.1 71 SSW 5 G 18 29.91 1012.8 0.00 42 0.007
16 08:00 33.2 25.2 72 SW 5 G 19 29.91 1012.9 0.00 11 0.006
16 07:00 32.5 25.8 33.8 27.1 76 SW 6 G 15 29.93 1013.6 0.00 0 0.005
16 06:00 33.2 27.4 79 SW 4 G 12 29.93 1013.6 0.00 0 0.004
16 05:00 33.7 26.6 75 SSW 6 G 13 29.93 1013.5 0.00 0 0.003
16 04:00 33.7 26.3 74 S 5 G 14 29.95 1014.1 0.00 0 0.002
16 03:00 33.1 25.1 72 S 5 G 12 29.97 1014.8 0.00 0 0.001
16 02:00 31.9 25.5 77 S 6 G 13 29.99 1015.5 0.00 0 0.000
16 01:00 27.1 23.7 27.2 20.4 87 SSE 3 G 6 29.99 1015.7 0.00 0 0.000
16 00:00 24.0 20.7 87 Calm 30.02 1016.5 0.00 0 0.017
15 23:00 23.3 20.0 87 Calm 30.04 1017.4 0.00 0 0.017
15 22:00 22.1 18.8 87 Calm 30.05 1017.8 0.00 0 0.017
15 21:00 20.6 17.1 86 Calm 30.06 1017.8 0.00 0 0.017
15 20:00 21.0 16.7 83 Calm 30.05 1017.7 0.00 0 0.017
15 19:00 22.5 17.3 33.1 22.4 80 Calm 30.05 1017.6 0.00 0 0.017
15 18:00 24.5 18.6 78 Calm 30.03 1017.1 0.00 0 0.017
15 17:00 26.0 20.1 78 Calm 30.02 1016.7 0.00 0 0.017
15 16:00 29.5 22.2 74 ESE 2 G 3 30.01 1016.4 0.00 23 0.016
15 15:00 31.5 22.2 68 SE 2 G 6 30.01 1016.2 0.00 86 0.014
15 14:00 31.6 19.3 60 NNW 1 G 5 30.00 1015.8 0.00 97 0.011
15 13:00 31.8 19.1 32.0 11.7 59 NW 2 G 5 29.99 1015.7 0.00 162 0.007
15 12:00 30.1 17.9 60 NW 4 G 9 30.00 1016.1 0.00 313 0.003
15 11:00 25.6 15.5 65 NW 1 G 8 30.03 1016.8 0.00 163 0.001
15 10:00 24.0 14.6 67 N 2 G 5 30.03 1017.1 0.00 155 0.000
15 09:00 17.3 11.0 76 NW 1 G 3 30.03 1017.0 0.00 25 0.000
15 08:00 13.0 8.8 83 N 0 G 3 30.02 1016.6 0.00 33 0.000
15 07:00 12.3 7.3 14.1 12.1 80 Calm 30.01 1016.2 0.00 0 0.000
15 06:00 13.0 7.4 78 NNW 0 G 4 30.00 1015.9 0.00 0 0.000
15 05:00 12.4 7.1 79 Calm 29.98 1015.2 0.00 0 0.000
15 04:00 13.4 7.5 77 N 1 G 4 29.98 1015.2 0.00 0 0.000
15 03:00 14.0 8.4 78 NW 2 G 5 29.98 1015.4 0.00 0 0.000
15 02:00 13.6 8.9 81 NW 3 G 6 29.99 1015.6 0.00 0 0.000
15 01:00 13.8 8.8 18.7 13.5 80 NW 2 G 4 30.00 1015.8 0.00 0 0.000
15 00:00 13.6 8.6 80 NW 2 G 3 30.00 1016.1 0.00 0 0.015
14 23:00 14.0 8.7 79 NW 2 G 3 30.04 1017.3 0.00 0 0.015
14 22:00 14.8 8.9 77 NW 2 G 5 30.05 1017.7 0.00 0 0.015
14 21:00 15.3 8.8 75 NW 1 G 3 30.06 1017.9 0.00 0 0.015
14 20:00 17.0 9.2 71 NNW 2 G 4 30.07 1018.4 0.00 0 0.015
14 19:00 18.7 9.6 26.5 18.7 67 N 1 G 5 30.09 1019.1 0.00 0 0.014
14 18:00 19.6 10.1 66 NNW 2 G 5 30.10 1019.5 0.00 0 0.013
14 17:00 20.8 10.5 64 N 1 G 3 30.10 1019.5 0.00 0 0.013
14 16:00 24.4 11.3 57 NNW 0 G 5 30.12 1019.9 0.00 14 0.012
14 15:00 25.7 12.2 56 NNW 1 G 7 30.14 1020.6 0.00 90 0.011
14 14:00 25.2 15.4 66 SE 2 G 4 30.16 1021.3 0.00 104 0.009
14 13:00 26.5 16.0 27.6 6.6 64 SSE 1 G 4 30.18 1022.0 0.00 132 0.006
14 12:00 23.1 15.1 71 E 1 G 4 30.21 1023.2 0.00 330 0.002
14 11:00 21.7 15.3 76 E 3 G 4 30.26 1024.7 0.00 396 0.000
14 10:00 16.7 11.6 80 NNE 2 G 8 30.29 1025.8 0.00 33 0.000
14 09:00 10.5 7.1 86 N 1 G 3 30.30 1026.1 0.00 26 0.000
14 08:00 6.8 3.5 86 NNW 3 G 4 30.30 1026.0 0.00 18 0.000
14 07:00 6.7 3.4 9.9 6.6 86 NE 1 G 4 30.31 1026.3 0.00 0 0.000
14 06:00 7.2 3.9 86 NW 2 G 3 30.30 1026.0 0.00 0 0.000
14 05:00 7.6 4.0 85 NNW 2 G 3 30.30 1026.0 0.00 0 0.000
14 04:00 8.3 4.7 85 NNW 2 G 3 30.32 1026.8 0.00 0 0.000
14 03:00 8.1 4.8 86 NNW 2 G 4 30.36 1028.0 0.00 0 0.000
14 02:00 8.7 5.1 85 NNW 1 G 3 30.36 1028.3 0.00 0 0.000
14 01:00 9.9 5.8 15.8 9.9 83 NNW 1 G 3 30.35 1027.8 0.00 0 0.000

Data generated by WxSolution Version 1.9.1.5, Build 2018.05.20.